sensor_id;sensor_type;location;lat;lon;timestamp;P1;durP1;ratioP1;P2;durP2;ratioP2
54853;SDS011;40747;49.480;8.658;2023-04-01T00:00:23;0.40;;;0.30;;
54853;SDS011;40747;49.480;8.658;2023-04-01T00:02:49;1.05;;;0.47;;
54853;SDS011;40747;49.480;8.658;2023-04-01T00:05:14;2.33;;;0.47;;
54853;SDS011;40747;49.480;8.658;2023-04-01T00:07:41;0.70;;;0.30;;
54853;SDS011;40747;49.480;8.658;2023-04-01T00:10:07;1.67;;;0.60;;
54853;SDS011;40747;49.480;8.658;2023-04-01T00:12:34;0.55;;;0.40;;
54853;SDS011;40747;49.480;8.658;2023-04-01T00:14:59;0.93;;;0.20;;
54853;SDS011;40747;49.480;8.658;2023-04-01T00:17:25;0.10;;;0.10;;
54853;SDS011;40747;49.480;8.658;2023-04-01T00:19:51;2.10;;;0.30;;
54853;SDS011;40747;49.480;8.658;2023-04-01T00:22:19;3.95;;;0.38;;
54853;SDS011;40747;49.480;8.658;2023-04-01T00:24:44;2.88;;;0.32;;
54853;SDS011;40747;49.480;8.658;2023-04-01T00:27:09;3.00;;;0.50;;
54853;SDS011;40747;49.480;8.658;2023-04-01T00:29:35;1.00;;;0.50;;
54853;SDS011;40747;49.480;8.658;2023-04-01T00:32:00;2.38;;;0.50;;
54853;SDS011;40747;49.480;8.658;2023-04-01T00:34:26;0.20;;;0.20;;
54853;SDS011;40747;49.480;8.658;2023-04-01T00:36:51;0.38;;;0.13;;
54853;SDS011;40747;49.480;8.658;2023-04-01T00:39:18;1.42;;;0.45;;
54853;SDS011;40747;49.480;8.658;2023-04-01T00:41:43;3.83;;;0.40;;
54853;SDS011;40747;49.480;8.658;2023-04-01T00:44:20;0.43;;;0.28;;
54853;SDS011;40747;49.480;8.658;2023-04-01T00:46:47;3.50;;;0.35;;
54853;SDS011;40747;49.480;8.658;2023-04-01T00:49:14;2.45;;;0.63;;
54853;SDS011;40747;49.480;8.658;2023-04-01T00:51:41;0.35;;;0.35;;
54853;SDS011;40747;49.480;8.658;2023-04-01T00:54:10;0.40;;;0.30;;
54853;SDS011;40747;49.480;8.658;2023-04-01T00:56:40;0.57;;;0.20;;
54853;SDS011;40747;49.480;8.658;2023-04-01T00:59:14;0.47;;;0.30;;
54853;SDS011;40747;49.480;8.658;2023-04-01T01:01:44;2.20;;;0.30;;
54853;SDS011;40747;49.480;8.658;2023-04-01T01:04:28;1.70;;;0.63;;
54853;SDS011;40747;49.480;8.658;2023-04-01T01:09:38;0.38;;;0.30;;
54853;SDS011;40747;49.480;8.658;2023-04-01T01:17:44;2.03;;;0.25;;
54853;SDS011;40747;49.480;8.658;2023-04-01T01:20:36;1.40;;;0.47;;
54853;SDS011;40747;49.480;8.658;2023-04-01T01:23:26;1.45;;;0.50;;
54853;SDS011;40747;49.480;8.658;2023-04-01T01:26:09;1.55;;;0.43;;
54853;SDS011;40747;49.480;8.658;2023-04-01T01:29:33;2.72;;;0.28;;
54853;SDS011;40747;49.480;8.658;2023-04-01T01:34:36;1.58;;;0.20;;
54853;SDS011;40747;49.480;8.658;2023-04-01T01:37:25;5.55;;;0.43;;
54853;SDS011;40747;49.480;8.658;2023-04-01T01:39:55;2.28;;;0.38;;
54853;SDS011;40747;49.480;8.658;2023-04-01T01:42:25;3.25;;;0.43;;
54853;SDS011;40747;49.480;8.658;2023-04-01T01:44:53;4.03;;;0.40;;
54853;SDS011;40747;49.480;8.658;2023-04-01T01:47:21;3.10;;;0.35;;
54853;SDS011;40747;49.480;8.658;2023-04-01T01:49:48;0.35;;;0.30;;
54853;SDS011;40747;49.480;8.658;2023-04-01T01:52:16;2.17;;;0.50;;
54853;SDS011;40747;49.480;8.658;2023-04-01T01:54:52;7.43;;;0.73;;
54853;SDS011;40747;49.480;8.658;2023-04-01T01:57:20;3.83;;;0.30;;
54853;SDS011;40747;49.480;8.658;2023-04-01T01:59:49;0.25;;;0.20;;
54853;SDS011;40747;49.480;8.658;2023-04-01T02:02:20;0.65;;;0.20;;
54853;SDS011;40747;49.480;8.658;2023-04-01T02:04:47;1.85;;;0.65;;
54853;SDS011;40747;49.480;8.658;2023-04-01T02:07:16;1.05;;;0.40;;
54853;SDS011;40747;49.480;8.658;2023-04-01T02:09:46;0.77;;;0.30;;
54853;SDS011;40747;49.480;8.658;2023-04-01T02:12:12;0.40;;;0.20;;
54853;SDS011;40747;49.480;8.658;2023-04-01T02:17:29;0.32;;;0.25;;
54853;SDS011;40747;49.480;8.658;2023-04-01T02:19:57;0.15;;;0.10;;
54853;SDS011;40747;49.480;8.658;2023-04-01T02:22:28;1.55;;;0.30;;
54853;SDS011;40747;49.480;8.658;2023-04-01T02:25:01;3.28;;;0.55;;
54853;SDS011;40747;49.480;8.658;2023-04-01T02:27:30;3.63;;;0.70;;
54853;SDS011;40747;49.480;8.658;2023-04-01T02:29:56;4.90;;;0.57;;
54853;SDS011;40747;49.480;8.658;2023-04-01T02:32:23;3.42;;;0.45;;
54853;SDS011;40747;49.480;8.658;2023-04-01T02:34:50;0.10;;;0.10;;
54853;SDS011;40747;49.480;8.658;2023-04-01T02:37:16;2.50;;;0.40;;
54853;SDS011;40747;49.480;8.658;2023-04-01T02:39:42;1.80;;;0.20;;
54853;SDS011;40747;49.480;8.658;2023-04-01T02:42:07;2.33;;;0.77;;
54853;SDS011;40747;49.480;8.658;2023-04-01T02:44:33;4.55;;;0.47;;
54853;SDS011;40747;49.480;8.658;2023-04-01T02:46:58;1.35;;;0.20;;
54853;SDS011;40747;49.480;8.658;2023-04-01T02:49:23;0.93;;;0.40;;
54853;SDS011;40747;49.480;8.658;2023-04-01T02:51:49;0.65;;;0.45;;
54853;SDS011;40747;49.480;8.658;2023-04-01T02:54:14;0.43;;;0.20;;
54853;SDS011;40747;49.480;8.658;2023-04-01T02:56:40;0.10;;;0.10;;
54853;SDS011;40747;49.480;8.658;2023-04-01T02:59:05;0.82;;;0.50;;
54853;SDS011;40747;49.480;8.658;2023-04-01T03:01:30;4.85;;;0.47;;
54853;SDS011;40747;49.480;8.658;2023-04-01T03:03:55;1.30;;;0.40;;
54853;SDS011;40747;49.480;8.658;2023-04-01T03:06:21;1.65;;;0.40;;
54853;SDS011;40747;49.480;8.658;2023-04-01T03:08:46;2.55;;;0.50;;
54853;SDS011;40747;49.480;8.658;2023-04-01T03:11:11;3.05;;;0.20;;
54853;SDS011;40747;49.480;8.658;2023-04-01T03:13:37;0.45;;;0.30;;
54853;SDS011;40747;49.480;8.658;2023-04-01T03:16:03;0.95;;;0.20;;
54853;SDS011;40747;49.480;8.658;2023-04-01T03:18:28;0.95;;;0.55;;
54853;SDS011;40747;49.480;8.658;2023-04-01T03:20:54;0.10;;;0.10;;
54853;SDS011;40747;49.480;8.658;2023-04-01T03:23:19;5.32;;;0.70;;
54853;SDS011;40747;49.480;8.658;2023-04-01T03:25:46;2.50;;;0.43;;
54853;SDS011;40747;49.480;8.658;2023-04-01T03:28:11;4.60;;;0.80;;
54853;SDS011;40747;49.480;8.658;2023-04-01T03:30:38;5.10;;;0.65;;
54853;SDS011;40747;49.480;8.658;2023-04-01T03:33:03;0.38;;;0.30;;
54853;SDS011;40747;49.480;8.658;2023-04-01T03:35:29;1.40;;;0.28;;
54853;SDS011;40747;49.480;8.658;2023-04-01T03:37:54;0.45;;;0.20;;
54853;SDS011;40747;49.480;8.658;2023-04-01T03:40:20;1.90;;;0.63;;
54853;SDS011;40747;49.480;8.658;2023-04-01T03:42:46;1.55;;;0.90;;
54853;SDS011;40747;49.480;8.658;2023-04-01T03:45:11;0.68;;;0.15;;
54853;SDS011;40747;49.480;8.658;2023-04-01T03:47:37;0.55;;;0.22;;
54853;SDS011;40747;49.480;8.658;2023-04-01T03:50:05;0.50;;;0.00;;
54853;SDS011;40747;49.480;8.658;2023-04-01T03:52:32;0.52;;;0.30;;
54853;SDS011;40747;49.480;8.658;2023-04-01T03:54:58;1.75;;;0.50;;
54853;SDS011;40747;49.480;8.658;2023-04-01T03:57:23;1.35;;;0.20;;
54853;SDS011;40747;49.480;8.658;2023-04-01T03:59:48;2.83;;;0.50;;
54853;SDS011;40747;49.480;8.658;2023-04-01T04:02:13;1.08;;;0.20;;
54853;SDS011;40747;49.480;8.658;2023-04-01T04:04:39;2.70;;;0.75;;
54853;SDS011;40747;49.480;8.658;2023-04-01T04:07:04;0.77;;;0.25;;
54853;SDS011;40747;49.480;8.658;2023-04-01T04:09:30;0.10;;;0.10;;
54853;SDS011;40747;49.480;8.658;2023-04-01T04:11:56;0.15;;;0.10;;
54853;SDS011;40747;49.480;8.658;2023-04-01T04:14:22;1.85;;;0.52;;
54853;SDS011;40747;49.480;8.658;2023-04-01T04:16:48;0.20;;;0.10;;
54853;SDS011;40747;49.480;8.658;2023-04-01T04:19:13;0.32;;;0.10;;
54853;SDS011;40747;49.480;8.658;2023-04-01T04:21:39;0.30;;;0.30;;
54853;SDS011;40747;49.480;8.658;2023-04-01T04:24:05;0.75;;;0.25;;
54853;SDS011;40747;49.480;8.658;2023-04-01T04:26:31;3.25;;;0.85;;
54853;SDS011;40747;49.480;8.658;2023-04-01T04:28:56;4.53;;;0.30;;
54853;SDS011;40747;49.480;8.658;2023-04-01T04:31:22;3.00;;;0.30;;
54853;SDS011;40747;49.480;8.658;2023-04-01T04:33:48;2.28;;;0.32;;
54853;SDS011;40747;49.480;8.658;2023-04-01T04:36:14;0.40;;;0.20;;
54853;SDS011;40747;49.480;8.658;2023-04-01T04:38:40;1.02;;;0.15;;
54853;SDS011;40747;49.480;8.658;2023-04-01T04:41:11;1.00;;;0.35;;
54853;SDS011;40747;49.480;8.658;2023-04-01T04:43:38;0.77;;;0.30;;
54853;SDS011;40747;49.480;8.658;2023-04-01T04:46:07;0.43;;;0.13;;
54853;SDS011;40747;49.480;8.658;2023-04-01T04:48:35;0.60;;;0.47;;
54853;SDS011;40747;49.480;8.658;2023-04-01T04:51:00;0.65;;;0.20;;
54853;SDS011;40747;49.480;8.658;2023-04-01T04:53:26;0.40;;;0.30;;
54853;SDS011;40747;49.480;8.658;2023-04-01T04:55:52;0.60;;;0.20;;
54853;SDS011;40747;49.480;8.658;2023-04-01T04:58:18;5.15;;;0.20;;
54853;SDS011;40747;49.480;8.658;2023-04-01T05:00:43;0.73;;;0.57;;
54853;SDS011;40747;49.480;8.658;2023-04-01T05:03:09;0.90;;;0.30;;
54853;SDS011;40747;49.480;8.658;2023-04-01T05:05:35;1.05;;;0.30;;
54853;SDS011;40747;49.480;8.658;2023-04-01T05:08:01;0.20;;;0.20;;
54853;SDS011;40747;49.480;8.658;2023-04-01T05:10:26;0.60;;;0.22;;
54853;SDS011;40747;49.480;8.658;2023-04-01T05:12:51;0.70;;;0.50;;
54853;SDS011;40747;49.480;8.658;2023-04-01T05:15:17;3.83;;;0.20;;
54853;SDS011;40747;49.480;8.658;2023-04-01T05:17:42;1.02;;;0.17;;
54853;SDS011;40747;49.480;8.658;2023-04-01T05:20:08;8.00;;;0.47;;
54853;SDS011;40747;49.480;8.658;2023-04-01T05:22:33;2.00;;;0.35;;
54853;SDS011;40747;49.480;8.658;2023-04-01T05:24:59;4.65;;;0.20;;
54853;SDS011;40747;49.480;8.658;2023-04-01T05:27:24;0.82;;;0.20;;
54853;SDS011;40747;49.480;8.658;2023-04-01T05:29:50;0.82;;;0.22;;
54853;SDS011;40747;49.480;8.658;2023-04-01T05:32:15;0.88;;;0.30;;
54853;SDS011;40747;49.480;8.658;2023-04-01T05:34:41;0.57;;;0.20;;
54853;SDS011;40747;49.480;8.658;2023-04-01T05:37:06;1.02;;;0.50;;
54853;SDS011;40747;49.480;8.658;2023-04-01T05:39:35;3.10;;;0.47;;
54853;SDS011;40747;49.480;8.658;2023-04-01T05:42:02;0.40;;;0.20;;
54853;SDS011;40747;49.480;8.658;2023-04-01T05:44:27;1.63;;;0.30;;
54853;SDS011;40747;49.480;8.658;2023-04-01T05:46:53;0.20;;;0.20;;
54853;SDS011;40747;49.480;8.658;2023-04-01T05:49:18;2.45;;;0.40;;
54853;SDS011;40747;49.480;8.658;2023-04-01T05:51:43;0.20;;;0.20;;
54853;SDS011;40747;49.480;8.658;2023-04-01T05:54:08;1.25;;;0.52;;
54853;SDS011;40747;49.480;8.658;2023-04-01T05:56:34;0.20;;;0.20;;
54853;SDS011;40747;49.480;8.658;2023-04-01T05:58:59;0.43;;;0.22;;
54853;SDS011;40747;49.480;8.658;2023-04-01T06:01:24;1.95;;;0.30;;
54853;SDS011;40747;49.480;8.658;2023-04-01T06:03:50;1.17;;;0.30;;
54853;SDS011;40747;49.480;8.658;2023-04-01T06:06:16;0.90;;;0.40;;
54853;SDS011;40747;49.480;8.658;2023-04-01T06:08:48;2.28;;;0.30;;
54853;SDS011;40747;49.480;8.658;2023-04-01T06:11:33;5.32;;;1.27;;
54853;SDS011;40747;49.480;8.658;2023-04-01T06:25:37;2.13;;;0.60;;
54853;SDS011;40747;49.480;8.658;2023-04-01T06:31:22;1.25;;;0.75;;
54853;SDS011;40747;49.480;8.658;2023-04-01T06:34:14;1.88;;;0.30;;
54853;SDS011;40747;49.480;8.658;2023-04-01T06:36:53;1.25;;;0.15;;
54853;SDS011;40747;49.480;8.658;2023-04-01T06:42:19;3.05;;;0.50;;
54853;SDS011;40747;49.480;8.658;2023-04-01T06:45:18;0.20;;;0.20;;
54853;SDS011;40747;49.480;8.658;2023-04-01T06:51:13;0.38;;;0.30;;
54853;SDS011;40747;49.480;8.658;2023-04-01T06:54:13;1.90;;;0.52;;
54853;SDS011;40747;49.480;8.658;2023-04-01T06:56:46;0.10;;;0.10;;
54853;SDS011;40747;49.480;8.658;2023-04-01T06:59:18;1.05;;;0.25;;
54853;SDS011;40747;49.480;8.658;2023-04-01T07:01:47;0.30;;;0.30;;
54853;SDS011;40747;49.480;8.658;2023-04-01T07:04:21;1.65;;;0.25;;
54853;SDS011;40747;49.480;8.658;2023-04-01T07:09:37;0.65;;;0.43;;
54853;SDS011;40747;49.480;8.658;2023-04-01T07:12:09;2.80;;;0.30;;
54853;SDS011;40747;49.480;8.658;2023-04-01T07:14:42;2.55;;;0.10;;
54853;SDS011;40747;49.480;8.658;2023-04-01T07:17:12;2.45;;;0.38;;
54853;SDS011;40747;49.480;8.658;2023-04-01T07:19:42;3.22;;;0.40;;
54853;SDS011;40747;49.480;8.658;2023-04-01T07:28:04;0.10;;;0.10;;
54853;SDS011;40747;49.480;8.658;2023-04-01T07:30:41;0.10;;;0.10;;
54853;SDS011;40747;49.480;8.658;2023-04-01T07:33:11;0.43;;;0.30;;
54853;SDS011;40747;49.480;8.658;2023-04-01T07:35:46;0.30;;;0.10;;
54853;SDS011;40747;49.480;8.658;2023-04-01T07:38:22;1.13;;;0.38;;
54853;SDS011;40747;49.480;8.658;2023-04-01T07:41:00;2.22;;;0.40;;
54853;SDS011;40747;49.480;8.658;2023-04-01T07:43:55;1.00;;;0.43;;
54853;SDS011;40747;49.480;8.658;2023-04-01T07:46:32;0.65;;;0.20;;
54853;SDS011;40747;49.480;8.658;2023-04-01T07:49:18;0.10;;;0.10;;
54853;SDS011;40747;49.480;8.658;2023-04-01T07:51:54;0.73;;;0.20;;
54853;SDS011;40747;49.480;8.658;2023-04-01T07:54:37;0.40;;;0.20;;
54853;SDS011;40747;49.480;8.658;2023-04-01T07:57:12;0.47;;;0.30;;
54853;SDS011;40747;49.480;8.658;2023-04-01T08:10:27;0.20;;;0.20;;
54853;SDS011;40747;49.480;8.658;2023-04-01T08:21:05;0.10;;;0.10;;
54853;SDS011;40747;49.480;8.658;2023-04-01T08:23:38;0.57;;;0.20;;
54853;SDS011;40747;49.480;8.658;2023-04-01T08:31:25;0.20;;;0.20;;
54853;SDS011;40747;49.480;8.658;2023-04-01T08:33:57;0.20;;;0.20;;
54853;SDS011;40747;49.480;8.658;2023-04-01T08:36:24;1.08;;;0.40;;
54853;SDS011;40747;49.480;8.658;2023-04-01T08:38:59;0.60;;;0.30;;
54853;SDS011;40747;49.480;8.658;2023-04-01T08:44:36;0.30;;;0.30;;
54853;SDS011;40747;49.480;8.658;2023-04-01T08:52:22;0.77;;;0.32;;
54853;SDS011;40747;49.480;8.658;2023-04-01T09:00:30;0.60;;;0.15;;
54853;SDS011;40747;49.480;8.658;2023-04-01T09:05:58;4.57;;;0.20;;
54853;SDS011;40747;49.480;8.658;2023-04-01T09:11:25;0.35;;;0.32;;
54853;SDS011;40747;49.480;8.658;2023-04-01T09:20:23;0.20;;;0.20;;
54853;SDS011;40747;49.480;8.658;2023-04-01T09:26:26;0.50;;;0.30;;
54853;SDS011;40747;49.480;8.658;2023-04-01T09:34:52;0.52;;;0.10;;
54853;SDS011;40747;49.480;8.658;2023-04-01T09:42:42;0.20;;;0.20;;
54853;SDS011;40747;49.480;8.658;2023-04-01T09:45:09;0.43;;;0.43;;
54853;SDS011;40747;49.480;8.658;2023-04-01T09:50:52;0.35;;;0.30;;
54853;SDS011;40747;49.480;8.658;2023-04-01T09:56:19;1.35;;;0.28;;
54853;SDS011;40747;49.480;8.658;2023-04-01T09:59:01;0.30;;;0.25;;
54853;SDS011;40747;49.480;8.658;2023-04-01T10:02:01;1.92;;;0.50;;
54853;SDS011;40747;49.480;8.658;2023-04-01T10:16:42;0.10;;;0.10;;
54853;SDS011;40747;49.480;8.658;2023-04-01T10:19:24;0.30;;;0.25;;
54853;SDS011;40747;49.480;8.658;2023-04-01T10:33:10;0.60;;;0.30;;
54853;SDS011;40747;49.480;8.658;2023-04-01T10:38:17;0.20;;;0.20;;
54853;SDS011;40747;49.480;8.658;2023-04-01T10:41:06;0.20;;;0.20;;
54853;SDS011;40747;49.480;8.658;2023-04-01T10:44:04;1.60;;;0.13;;
54853;SDS011;40747;49.480;8.658;2023-04-01T10:47:08;2.40;;;0.52;;
54853;SDS011;40747;49.480;8.658;2023-04-01T11:06:59;0.00;;;0.00;;
54853;SDS011;40747;49.480;8.658;2023-04-01T11:12:37;0.40;;;0.30;;
54853;SDS011;40747;49.480;8.658;2023-04-01T11:15:15;0.38;;;0.30;;
54853;SDS011;40747;49.480;8.658;2023-04-01T11:18:35;0.55;;;0.30;;
54853;SDS011;40747;49.480;8.658;2023-04-01T11:24:01;0.45;;;0.45;;
54853;SDS011;40747;49.480;8.658;2023-04-01T11:26:56;2.53;;;0.50;;
54853;SDS011;40747;49.480;8.658;2023-04-01T11:30:02;0.60;;;0.52;;
54853;SDS011;40747;49.480;8.658;2023-04-01T11:46:48;0.40;;;0.40;;
54853;SDS011;40747;49.480;8.658;2023-04-01T11:49:36;0.28;;;0.20;;
54853;SDS011;40747;49.480;8.658;2023-04-01T11:57:50;0.88;;;0.30;;
54853;SDS011;40747;49.480;8.658;2023-04-01T12:00:44;1.42;;;0.60;;
54853;SDS011;40747;49.480;8.658;2023-04-01T12:03:21;0.52;;;0.20;;
54853;SDS011;40747;49.480;8.658;2023-04-01T12:06:11;0.43;;;0.32;;
54853;SDS011;40747;49.480;8.658;2023-04-01T12:08:58;2.47;;;0.85;;
54853;SDS011;40747;49.480;8.658;2023-04-01T12:11:50;0.38;;;0.30;;
54853;SDS011;40747;49.480;8.658;2023-04-01T12:14:44;0.10;;;0.10;;
54853;SDS011;40747;49.480;8.658;2023-04-01T12:17:36;0.20;;;0.10;;
54853;SDS011;40747;49.480;8.658;2023-04-01T12:22:59;0.20;;;0.20;;
54853;SDS011;40747;49.480;8.658;2023-04-01T12:25:53;0.60;;;0.35;;
54853;SDS011;40747;49.480;8.658;2023-04-01T12:28:24;0.43;;;0.20;;
54853;SDS011;40747;49.480;8.658;2023-04-01T12:31:02;0.80;;;0.73;;
54853;SDS011;40747;49.480;8.658;2023-04-01T12:39:22;0.20;;;0.20;;
54853;SDS011;40747;49.480;8.658;2023-04-01T12:50:02;0.82;;;0.20;;
54853;SDS011;40747;49.480;8.658;2023-04-01T13:01:03;0.20;;;0.20;;
54853;SDS011;40747;49.480;8.658;2023-04-01T13:06:57;0.50;;;0.30;;
54853;SDS011;40747;49.480;8.658;2023-04-01T13:09:45;0.38;;;0.38;;
54853;SDS011;40747;49.480;8.658;2023-04-01T13:12:26;0.63;;;0.45;;
54853;SDS011;40747;49.480;8.658;2023-04-01T13:15:21;0.30;;;0.30;;
54853;SDS011;40747;49.480;8.658;2023-04-01T13:33:50;0.10;;;0.10;;
54853;SDS011;40747;49.480;8.658;2023-04-01T13:42:02;0.20;;;0.20;;
54853;SDS011;40747;49.480;8.658;2023-04-01T13:53:17;0.43;;;0.30;;
54853;SDS011;40747;49.480;8.658;2023-04-01T13:59:25;3.10;;;1.05;;
54853;SDS011;40747;49.480;8.658;2023-04-01T14:16:40;0.32;;;0.13;;
54853;SDS011;40747;49.480;8.658;2023-04-01T14:19:38;0.32;;;0.20;;
54853;SDS011;40747;49.480;8.658;2023-04-01T14:24:52;0.30;;;0.30;;
54853;SDS011;40747;49.480;8.658;2023-04-01T14:27:46;0.20;;;0.20;;
54853;SDS011;40747;49.480;8.658;2023-04-01T14:33:43;1.48;;;1.35;;
54853;SDS011;40747;49.480;8.658;2023-04-01T14:41:39;0.75;;;0.30;;
54853;SDS011;40747;49.480;8.658;2023-04-01T14:44:33;0.30;;;0.30;;
54853;SDS011;40747;49.480;8.658;2023-04-01T14:47:34;0.20;;;0.20;;
54853;SDS011;40747;49.480;8.658;2023-04-01T14:50:14;0.47;;;0.40;;
54853;SDS011;40747;49.480;8.658;2023-04-01T14:52:46;0.30;;;0.30;;
54853;SDS011;40747;49.480;8.658;2023-04-01T14:55:28;1.58;;;0.22;;
54853;SDS011;40747;49.480;8.658;2023-04-01T14:58:19;1.60;;;0.50;;
54853;SDS011;40747;49.480;8.658;2023-04-01T15:00:48;0.60;;;0.40;;
54853;SDS011;40747;49.480;8.658;2023-04-01T15:06:33;0.55;;;0.43;;
54853;SDS011;40747;49.480;8.658;2023-04-01T15:14:41;0.43;;;0.30;;
54853;SDS011;40747;49.480;8.658;2023-04-01T15:28:25;0.73;;;0.30;;
54853;SDS011;40747;49.480;8.658;2023-04-01T15:39:10;0.47;;;0.40;;
54853;SDS011;40747;49.480;8.658;2023-04-01T15:41:44;0.30;;;0.30;;
54853;SDS011;40747;49.480;8.658;2023-04-01T15:46:55;0.20;;;0.20;;
54853;SDS011;40747;49.480;8.658;2023-04-01T15:49:42;1.75;;;0.38;;
54853;SDS011;40747;49.480;8.658;2023-04-01T15:52:19;0.60;;;0.50;;
54853;SDS011;40747;49.480;8.658;2023-04-01T15:57:43;0.85;;;0.32;;
54853;SDS011;40747;49.480;8.658;2023-04-01T16:09:09;4.00;;;1.73;;
54853;SDS011;40747;49.480;8.658;2023-04-01T16:12:04;6.88;;;4.43;;
54853;SDS011;40747;49.480;8.658;2023-04-01T16:15:03;1.65;;;1.50;;
54853;SDS011;40747;49.480;8.658;2023-04-01T16:17:46;1.35;;;1.25;;
54853;SDS011;40747;49.480;8.658;2023-04-01T16:21:05;1.40;;;1.30;;
54853;SDS011;40747;49.480;8.658;2023-04-01T16:23:38;1.85;;;1.30;;
54853;SDS011;40747;49.480;8.658;2023-04-01T16:31:51;5.35;;;2.08;;
54853;SDS011;40747;49.480;8.658;2023-04-01T16:37:49;1.25;;;0.65;;
54853;SDS011;40747;49.480;8.658;2023-04-01T16:40:25;1.55;;;0.47;;
54853;SDS011;40747;49.480;8.658;2023-04-01T16:43:13;1.45;;;0.50;;
54853;SDS011;40747;49.480;8.658;2023-04-01T16:46:08;0.70;;;0.40;;
54853;SDS011;40747;49.480;8.658;2023-04-01T16:51:21;0.75;;;0.40;;
54853;SDS011;40747;49.480;8.658;2023-04-01T16:56:56;1.33;;;0.60;;
54853;SDS011;40747;49.480;8.658;2023-04-01T17:02:26;0.75;;;0.50;;
54853;SDS011;40747;49.480;8.658;2023-04-01T17:05:06;0.32;;;0.20;;
54853;SDS011;40747;49.480;8.658;2023-04-01T17:07:44;0.22;;;0.22;;
54853;SDS011;40747;49.480;8.658;2023-04-01T17:10:38;3.03;;;1.40;;
54853;SDS011;40747;49.480;8.658;2023-04-01T17:23:57;0.50;;;0.40;;
54853;SDS011;40747;49.480;8.658;2023-04-01T17:26:40;1.27;;;0.90;;
54853;SDS011;40747;49.480;8.658;2023-04-01T17:29:19;0.60;;;0.52;;
54853;SDS011;40747;49.480;8.658;2023-04-01T17:36:56;1.08;;;0.22;;
54853;SDS011;40747;49.480;8.658;2023-04-01T17:39:31;0.45;;;0.30;;
54853;SDS011;40747;49.480;8.658;2023-04-01T17:45:04;0.20;;;0.20;;
54853;SDS011;40747;49.480;8.658;2023-04-01T17:50:45;0.20;;;0.20;;
54853;SDS011;40747;49.480;8.658;2023-04-01T17:59:02;0.57;;;0.30;;
54853;SDS011;40747;49.480;8.658;2023-04-01T18:02:05;1.73;;;1.13;;
54853;SDS011;40747;49.480;8.658;2023-04-01T18:15:53;3.00;;;1.77;;
54853;SDS011;40747;49.480;8.658;2023-04-01T18:18:40;2.17;;;1.83;;
54853;SDS011;40747;49.480;8.658;2023-04-01T18:21:36;3.20;;;1.60;;
54853;SDS011;40747;49.480;8.658;2023-04-01T18:24:16;1.45;;;1.15;;
54853;SDS011;40747;49.480;8.658;2023-04-01T18:26:50;1.77;;;1.63;;
54853;SDS011;40747;49.480;8.658;2023-04-01T18:32:14;2.70;;;1.23;;
54853;SDS011;40747;49.480;8.658;2023-04-01T18:34:51;2.80;;;1.10;;
54853;SDS011;40747;49.480;8.658;2023-04-01T18:37:25;1.25;;;0.80;;
54853;SDS011;40747;49.480;8.658;2023-04-01T18:45:21;1.75;;;0.57;;
54853;SDS011;40747;49.480;8.658;2023-04-01T18:50:41;2.47;;;1.27;;
54853;SDS011;40747;49.480;8.658;2023-04-01T18:56:03;3.95;;;0.77;;
54853;SDS011;40747;49.480;8.658;2023-04-01T19:01:25;1.20;;;1.05;;
54853;SDS011;40747;49.480;8.658;2023-04-01T19:04:05;2.75;;;1.08;;
54853;SDS011;40747;49.480;8.658;2023-04-01T19:06:52;1.73;;;1.00;;
54853;SDS011;40747;49.480;8.658;2023-04-01T19:09:30;3.30;;;0.93;;
54853;SDS011;40747;49.480;8.658;2023-04-01T19:17:48;0.93;;;0.77;;
54853;SDS011;40747;49.480;8.658;2023-04-01T19:23:07;1.30;;;0.88;;
54853;SDS011;40747;49.480;8.658;2023-04-01T19:25:38;2.65;;;1.70;;
54853;SDS011;40747;49.480;8.658;2023-04-01T19:28:20;2.30;;;1.75;;
54853;SDS011;40747;49.480;8.658;2023-04-01T19:30:56;1.70;;;1.30;;
54853;SDS011;40747;49.480;8.658;2023-04-01T19:36:32;0.75;;;0.60;;
54853;SDS011;40747;49.480;8.658;2023-04-01T19:45:18;3.45;;;2.13;;
54853;SDS011;40747;49.480;8.658;2023-04-01T19:53:00;4.78;;;2.72;;
54853;SDS011;40747;49.480;8.658;2023-04-01T19:55:53;2.03;;;1.52;;
54853;SDS011;40747;49.480;8.658;2023-04-01T19:58:42;2.72;;;2.10;;
54853;SDS011;40747;49.480;8.658;2023-04-01T20:01:18;1.83;;;1.25;;
54853;SDS011;40747;49.480;8.658;2023-04-01T20:09:11;1.55;;;0.95;;
54853;SDS011;40747;49.480;8.658;2023-04-01T20:11:45;1.10;;;0.73;;
54853;SDS011;40747;49.480;8.658;2023-04-01T20:14:32;2.53;;;1.00;;
54853;SDS011;40747;49.480;8.658;2023-04-01T20:17:16;1.25;;;1.15;;
54853;SDS011;40747;49.480;8.658;2023-04-01T20:27:44;2.20;;;0.60;;
54853;SDS011;40747;49.480;8.658;2023-04-01T20:35:35;2.00;;;0.68;;
54853;SDS011;40747;49.480;8.658;2023-04-01T20:38:16;1.33;;;0.52;;
54853;SDS011;40747;49.480;8.658;2023-04-01T20:43:54;0.82;;;0.52;;
54853;SDS011;40747;49.480;8.658;2023-04-01T20:47:10;2.05;;;0.60;;
54853;SDS011;40747;49.480;8.658;2023-04-01T20:52:26;0.47;;;0.47;;
54853;SDS011;40747;49.480;8.658;2023-04-01T21:02:48;1.05;;;0.90;;
54853;SDS011;40747;49.480;8.658;2023-04-01T21:08:33;1.27;;;0.70;;
54853;SDS011;40747;49.480;8.658;2023-04-01T21:16:57;2.83;;;0.70;;
54853;SDS011;40747;49.480;8.658;2023-04-01T21:22:29;0.80;;;0.70;;
54853;SDS011;40747;49.480;8.658;2023-04-01T21:33:04;0.73;;;0.60;;
54853;SDS011;40747;49.480;8.658;2023-04-01T21:36:07;0.30;;;0.30;;
54853;SDS011;40747;49.480;8.658;2023-04-01T21:44:12;1.73;;;0.50;;
54853;SDS011;40747;49.480;8.658;2023-04-01T21:49:34;0.43;;;0.40;;
54853;SDS011;40747;49.480;8.658;2023-04-01T22:06:28;0.75;;;0.75;;
54853;SDS011;40747;49.480;8.658;2023-04-01T22:11:55;1.10;;;0.57;;
54853;SDS011;40747;49.480;8.658;2023-04-01T22:14:46;1.27;;;0.60;;
54853;SDS011;40747;49.480;8.658;2023-04-01T22:19:57;0.45;;;0.43;;
54853;SDS011;40747;49.480;8.658;2023-04-01T22:25:25;3.88;;;0.68;;
54853;SDS011;40747;49.480;8.658;2023-04-01T22:30:42;1.98;;;0.85;;
54853;SDS011;40747;49.480;8.658;2023-04-01T22:33:48;1.10;;;0.75;;
54853;SDS011;40747;49.480;8.658;2023-04-01T22:36:21;0.70;;;0.60;;
54853;SDS011;40747;49.480;8.658;2023-04-01T22:39:07;1.48;;;0.90;;
54853;SDS011;40747;49.480;8.658;2023-04-01T22:42:00;1.10;;;0.70;;
54853;SDS011;40747;49.480;8.658;2023-04-01T22:50:30;1.88;;;0.77;;
54853;SDS011;40747;49.480;8.658;2023-04-01T22:53:03;2.85;;;0.95;;
54853;SDS011;40747;49.480;8.658;2023-04-01T22:55:43;1.27;;;0.77;;
54853;SDS011;40747;49.480;8.658;2023-04-01T22:58:21;2.50;;;0.63;;
54853;SDS011;40747;49.480;8.658;2023-04-01T23:00:56;0.85;;;0.68;;
54853;SDS011;40747;49.480;8.658;2023-04-01T23:05:59;1.73;;;0.93;;
54853;SDS011;40747;49.480;8.658;2023-04-01T23:11:05;3.13;;;0.77;;
54853;SDS011;40747;49.480;8.658;2023-04-01T23:16:09;2.33;;;1.20;;
54853;SDS011;40747;49.480;8.658;2023-04-01T23:18:52;0.65;;;0.55;;
54853;SDS011;40747;49.480;8.658;2023-04-01T23:21:34;0.47;;;0.47;;
54853;SDS011;40747;49.480;8.658;2023-04-01T23:24:22;0.88;;;0.40;;
54853;SDS011;40747;49.480;8.658;2023-04-01T23:26:58;2.03;;;0.80;;
54853;SDS011;40747;49.480;8.658;2023-04-01T23:29:28;0.30;;;0.30;;
54853;SDS011;40747;49.480;8.658;2023-04-01T23:31:57;3.03;;;0.82;;
54853;SDS011;40747;49.480;8.658;2023-04-01T23:34:31;1.45;;;0.65;;
54853;SDS011;40747;49.480;8.658;2023-04-01T23:37:00;1.65;;;0.50;;
54853;SDS011;40747;49.480;8.658;2023-04-01T23:39:30;1.60;;;1.17;;
54853;SDS011;40747;49.480;8.658;2023-04-01T23:42:42;0.65;;;0.55;;
54853;SDS011;40747;49.480;8.658;2023-04-01T23:44:53;2.53;;;0.85;;
54853;SDS011;40747;49.480;8.658;2023-04-01T23:47:22;1.40;;;0.70;;
54853;SDS011;40747;49.480;8.658;2023-04-01T23:52:39;1.02;;;0.63;;
54853;SDS011;40747;49.480;8.658;2023-04-01T23:57:35;2.45;;;0.90;;
